Time;durP1;ratioP1;P1;durP2;ratioP2;P2;SDS_P1;SDS_P2;PMS_P1;PMS_P2;Temp;Humidity;BMP_temperature;BMP_pressure;BME280_temperature;BME280_humidity;BME280_pressure;Samples;Min_cycle;Max_cycle;Signal;HPM_P1;HPM_P2
2024/04/19 00:04:20;;;;;;;18.00;10.70;;;;;;;0.27;79.22;99387.61;219051;1260;140057;-67
2024/04/19 00:09:21;;;;;;;10.30;7.40;;;;;;;0.31;79.89;99388.70;220195;1258;142334;-69
2024/04/19 00:14:23;;;;;;;10.10;7.50;;;;;;;0.30;79.50;99383.87;217495;1258;141020;-66
2024/04/19 00:19:25;;;;;;;14.90;7.40;;;;;;;0.28;79.89;99382.75;217269;1258;139723;-66
2024/04/19 00:24:27;;;;;;;16.10;11.50;;;;;;;0.24;79.45;99379.05;217166;1262;140840;-66
2024/04/19 00:29:28;;;;;;;16.50;7.90;;;;;;;0.20;79.61;99377.70;217691;1257;139845;-67
2024/04/19 00:34:30;;;;;;;16.70;10.60;;;;;;;0.14;79.81;99381.58;217219;1258;141739;-66
2024/04/19 00:39:32;;;;;;;19.00;9.80;;;;;;;0.10;79.86;99378.39;217004;1258;139892;-68
2024/04/19 00:44:33;;;;;;;18.00;10.70;;;;;;;0.07;80.20;99373.47;217322;1262;141803;-66
2024/04/19 00:49:34;;;;;;;15.40;10.20;;;;;;;0.02;80.18;99376.65;217124;1257;140663;-69
2024/04/19 00:54:36;;;;;;;19.30;12.30;;;;;;;-0.04;79.93;99378.09;217301;1260;139930;-67
2024/04/19 00:59:38;;;;;;;19.20;13.20;;;;;;;-0.06;79.94;99376.36;217456;1257;140966;-67
2024/04/19 01:04:41;;;;;;;17.80;10.50;;;;;;;-0.08;80.42;99381.69;217447;1257;140138;-66
2024/04/19 01:09:58;;;;;;;17.40;13.60;;;;;;;-0.10;80.80;99372.67;217302;1257;141332;-66
2024/04/19 01:14:59;;;;;;;19.20;14.90;;;;;;;-0.04;81.59;99368.43;218376;1260;140460;-66
2024/04/19 01:20:00;;;;;;;21.70;13.70;;;;;;;0.05;81.82;99360.67;217488;1260;140329;-66
2024/04/19 01:25:04;;;;;;;17.30;13.60;;;;;;;0.12;82.10;99358.77;217376;1260;140228;-68
2024/04/19 01:30:07;;;;;;;18.00;12.50;;;;;;;0.17;81.95;99352.80;218368;1260;141235;-66
2024/04/19 01:35:08;;;;;;;20.80;11.40;;;;;;;0.21;82.26;99351.98;217257;1260;140551;-65
2024/04/19 01:40:10;;;;;;;19.00;12.80;;;;;;;0.22;82.29;99353.02;217139;1257;140012;-66
2024/04/19 01:45:11;;;;;;;23.40;12.90;;;;;;;0.22;82.02;99350.45;217488;1257;140644;-67
2024/04/19 01:50:15;;;;;;;18.70;14.50;;;;;;;0.20;82.35;99354.47;218836;1257;140313;-68
2024/04/19 01:55:17;;;;;;;21.20;14.20;;;;;;;0.20;82.66;99348.73;217079;1260;236981;-65
2024/04/19 02:00:18;;;;;;;22.10;15.50;;;;;;;0.19;82.47;99346.41;217325;1258;140427;-66
2024/04/19 02:05:19;;;;;;;24.30;14.80;;;;;;;0.17;82.60;99341.55;217613;1257;140157;-69
2024/04/19 02:10:20;;;;;;;18.60;14.70;;;;;;;0.15;82.70;99336.20;219306;1257;151895;-70
2024/04/19 02:15:22;;;;;;;22.10;18.70;;;;;;;0.15;82.70;99327.28;217482;1258;141148;-70
2024/04/19 02:20:24;;;;;;;24.10;17.30;;;;;;;0.17;83.11;99332.80;218711;1258;141059;-66
2024/04/19 02:25:25;;;;;;;22.70;15.90;;;;;;;0.16;83.02;99327.02;217998;1257;151958;-64
2024/04/19 02:35:48;;;;;;;34.60;31.00;;;;;;;0.22;83.36;99312.67;217662;1260;140408;-66
2024/04/19 02:40:49;;;;;;;24.20;20.00;;;;;;;0.27;83.76;99306.66;217310;1260;151721;-66
2024/04/19 02:45:50;;;;;;;25.60;19.60;;;;;;;0.30;83.91;99300.77;217487;1260;140123;-66
2024/04/19 02:50:53;;;;;;;21.90;16.50;;;;;;;0.34;84.07;99290.62;218179;1260;141473;-66
2024/04/19 02:55:55;;;;;;;25.90;16.80;;;;;;;0.39;84.22;99284.11;217497;1257;140132;-66
2024/04/19 03:00:56;;;;;;;18.20;14.10;;;;;;;0.44;84.67;99281.73;217485;1257;140368;-67
2024/04/19 03:05:59;;;;;;;16.90;12.90;;;;;;;0.50;84.75;99276.01;217632;1257;140222;-65
2024/04/19 03:11:06;;;;;;;25.90;14.30;;;;;;;0.56;85.00;99270.77;217458;1258;140334;-67
2024/04/19 03:16:09;;;;;;;17.20;12.90;;;;;;;0.63;84.88;99268.14;218350;1256;140195;-67
2024/04/19 03:21:10;;;;;;;15.30;11.00;;;;;;;0.70;85.20;99266.09;218065;1257;140191;-66
2024/04/19 03:26:11;;;;;;;19.00;12.60;;;;;;;0.77;85.30;99259.93;217534;1259;140452;-66
2024/04/19 03:31:14;;;;;;;14.90;11.60;;;;;;;0.85;85.24;99253.48;217388;1257;140350;-66
2024/04/19 03:36:15;;;;;;;15.10;10.30;;;;;;;0.88;85.20;99246.36;217572;1256;140287;-66
2024/04/19 03:41:17;;;;;;;14.10;10.00;;;;;;;0.93;85.38;99242.63;217666;1257;140453;-66
2024/04/19 03:46:18;;;;;;;8.00;6.10;;;;;;;0.98;85.24;99232.73;217682;1256;141911;-67
2024/04/19 03:51:20;;;;;;;14.80;9.40;;;;;;;1.00;85.16;99227.29;218712;1259;140518;-70
2024/04/19 03:56:31;;;;;;;11.30;7.30;;;;;;;1.00;85.48;99223.34;218694;1259;140683;-69
2024/04/19 04:01:32;;;;;;;11.90;8.90;;;;;;;1.05;85.45;99227.46;218679;1256;140211;-68
2024/04/19 04:06:34;;;;;;;10.00;8.60;;;;;;;1.11;85.71;99224.02;217581;1256;141288;-68
2024/04/19 04:11:35;;;;;;;11.50;8.50;;;;;;;1.18;85.64;99218.80;217456;1255;141458;-69
2024/04/19 04:16:37;;;;;;;8.50;7.60;;;;;;;1.24;85.46;99211.50;218452;1259;139932;-68
2024/04/19 04:21:39;;;;;;;9.80;7.40;;;;;;;1.30;85.60;99205.98;217386;1257;140485;-68
2024/04/19 04:26:41;;;;;;;13.10;8.20;;;;;;;1.32;85.93;99204.06;217408;1256;139923;-68
2024/04/19 04:31:42;;;;;;;8.00;6.50;;;;;;;1.38;85.68;99199.88;217288;1257;140302;-69
2024/04/19 04:36:44;;;;;;;9.70;6.40;;;;;;;1.43;85.75;99195.27;217271;1257;140482;-67
2024/04/19 04:41:45;;;;;;;7.10;6.30;;;;;;;1.48;85.90;99203.20;217387;1255;140322;-69
2024/04/19 04:46:47;;;;;;;7.50;6.40;;;;;;;1.58;86.23;99208.21;217413;1259;140779;-65
2024/04/19 04:51:48;;;;;;;8.30;7.10;;;;;;;1.73;86.17;99206.63;219042;1256;140625;-68
2024/04/19 04:56:49;;;;;;;10.10;5.50;;;;;;;1.84;86.28;99198.14;220021;1257;139783;-68
2024/04/19 05:01:51;;;;;;;8.60;5.90;;;;;;;1.92;86.31;99194.11;217222;1259;140187;-69
2024/04/19 05:06:53;;;;;;;5.50;4.20;;;;;;;2.02;86.05;99199.23;217720;1257;140119;-68
2024/04/19 05:11:54;;;;;;;6.30;3.40;;;;;;;2.10;85.94;99202.61;217544;1257;139863;-69
2024/04/19 05:16:56;;;;;;;8.10;6.30;;;;;;;2.21;86.12;99200.76;217584;1257;140888;-67
2024/04/19 05:21:57;;;;;;;6.00;4.70;;;;;;;2.37;85.69;99194.50;217639;1259;140190;-66
2024/04/19 05:26:59;;;;;;;6.80;4.70;;;;;;;2.57;85.89;99191.67;217366;1256;140611;-67
2024/04/19 05:32:00;;;;;;;5.40;3.60;;;;;;;2.83;85.59;99190.95;217498;1256;139833;-67
2024/04/19 05:37:01;;;;;;;7.20;4.40;;;;;;;3.01;85.53;99185.58;219050;1256;141739;-68
2024/04/19 05:42:03;;;;;;;7.00;5.20;;;;;;;3.16;85.06;99181.51;217449;1257;139607;-67
2024/04/19 05:47:05;;;;;;;7.70;5.20;;;;;;;3.29;84.90;99175.81;217550;1257;140169;-67
2024/04/19 05:52:06;;;;;;;5.20;4.00;;;;;;;3.62;84.59;99176.17;218594;1257;140577;-68
2024/04/19 05:57:08;;;;;;;5.90;4.40;;;;;;;3.94;84.36;99157.78;218249;1257;139583;-66
2024/04/19 06:02:09;;;;;;;8.50;5.70;;;;;;;4.11;84.00;99154.93;217453;1260;141549;-67
2024/04/19 06:07:10;;;;;;;3.50;3.20;;;;;;;4.46;83.68;99159.37;218072;1257;140449;-67
2024/04/19 06:12:15;;;;;;;7.30;5.30;;;;;;;4.76;82.79;99165.73;217689;1257;139732;-68
2024/04/19 06:17:17;;;;;;;4.70;4.10;;;;;;;4.81;82.48;99165.05;217685;1257;140622;-67
2024/04/19 06:22:18;;;;;;;4.40;3.80;;;;;;;4.84;82.23;99159.31;217448;1259;140616;-67
2024/04/19 06:27:20;;;;;;;5.30;4.20;;;;;;;4.94;82.44;99147.83;217309;1257;139992;-68
2024/04/19 06:32:21;;;;;;;7.40;5.50;;;;;;;5.11;82.40;99146.44;217401;1256;139886;-68
2024/04/19 06:37:24;;;;;;;6.60;4.60;;;;;;;5.25;82.51;99140.77;217394;1257;139657;-67
2024/04/19 06:42:25;;;;;;;8.80;4.70;;;;;;;5.49;82.40;99140.09;217942;1256;139583;-68
2024/04/19 06:47:27;;;;;;;5.80;5.00;;;;;;;6.33;82.24;99131.82;217818;1257;140816;-66
2024/04/19 06:52:28;;;;;;;7.40;5.10;;;;;;;7.98;81.04;99127.84;217348;1256;139648;-69
2024/04/19 06:57:29;;;;;;;5.80;4.40;;;;;;;9.69;79.30;99123.80;218301;1257;139919;-68
2024/04/19 07:02:31;;;;;;;7.40;3.30;;;;;;;10.75;77.23;99116.54;217796;1260;141426;-69
2024/04/19 07:07:32;;;;;;;5.30;4.60;;;;;;;10.90;74.51;99121.17;217571;1259;139519;-68
2024/04/19 07:12:34;;;;;;;4.60;3.70;;;;;;;10.96;73.65;99112.91;217268;1260;139106;-69
2024/04/19 07:17:35;;;;;;;7.20;4.30;;;;;;;11.22;73.44;99107.49;217544;1256;139490;-69
2024/04/19 07:22:37;;;;;;;4.90;4.00;;;;;;;11.61;72.93;99101.72;217820;1257;140196;-68
2024/04/19 07:27:38;;;;;;;6.70;4.20;;;;;;;12.14;72.23;99091.73;218723;1256;139095;-68
2024/04/19 07:32:40;;;;;;;4.00;3.00;;;;;;;12.77;71.93;99081.79;219698;1256;140191;-69
2024/04/19 07:37:41;;;;;;;3.80;2.80;;;;;;;13.25;70.74;99070.83;220304;1256;140670;-70
2024/04/19 07:42:45;;;;;;;3.50;3.20;;;;;;;13.61;69.45;99062.66;220368;1256;140176;-69
2024/04/19 07:47:46;;;;;;;2.40;2.10;;;;;;;13.96;68.25;99056.89;218823;1256;139486;-69
2024/04/19 07:52:48;;;;;;;2.70;2.20;;;;;;;14.28;67.36;99055.90;218263;1256;139376;-70
2024/04/19 07:57:50;;;;;;;7.50;2.70;;;;;;;14.54;65.91;99052.15;217764;1258;140801;-69
2024/04/19 08:02:52;;;;;;;4.70;1.70;;;;;;;14.71;64.86;99046.04;217393;1258;139684;-69
2024/04/19 08:07:56;;;;;;;2.10;1.90;;;;;;;14.76;63.46;99048.84;217659;1260;139941;-69
2024/04/19 08:12:57;;;;;;;4.50;1.30;;;;;;;14.54;61.31;99048.70;217454;1260;140741;-68
2024/04/19 08:17:59;;;;;;;3.00;1.60;;;;;;;14.06;60.62;99047.20;218204;1257;139823;-69
2024/04/19 08:23:01;;;;;;;2.70;2.30;;;;;;;14.32;61.27;99045.20;217734;1257;139234;-69
2024/04/19 08:28:03;;;;;;;2.90;1.90;;;;;;;14.45;59.99;99039.81;217659;1257;140047;-69
2024/04/19 08:33:05;;;;;;;5.00;1.80;;;;;;;14.12;58.86;99040.10;217758;1259;140278;-69
2024/04/19 08:38:07;;;;;;;3.10;2.80;;;;;;;13.70;58.51;99031.63;217595;1257;139422;-69
2024/04/19 08:43:11;;;;;;;4.10;2.40;;;;;;;13.53;58.30;99027.86;217637;1257;139719;-69
2024/04/19 08:48:15;;;;;;;4.60;2.50;;;;;;;13.25;57.91;99026.66;217942;1257;140100;-70
2024/04/19 08:53:17;;;;;;;6.10;3.10;;;;;;;12.93;57.82;99024.73;217931;1256;139224;-69
2024/04/19 08:58:21;;;;;;;2.70;1.80;;;;;;;12.80;58.14;99022.41;217409;1257;139457;-69
2024/04/19 09:03:22;;;;;;;4.50;2.60;;;;;;;12.39;57.92;99024.91;217777;1257;139313;-69
2024/04/19 09:08:25;;;;;;;2.30;2.00;;;;;;;12.00;57.95;99017.79;217748;1257;140176;-69
2024/04/19 09:13:28;;;;;;;5.50;2.80;;;;;;;11.59;58.09;99012.06;218364;1257;139954;-69
2024/04/19 09:18:30;;;;;;;2.60;2.00;;;;;;;11.28;58.34;99007.64;217508;1258;140091;-69
2024/04/19 09:23:32;;;;;;;2.70;2.50;;;;;;;10.93;58.47;98998.16;217409;1256;140591;-68
2024/04/19 09:28:34;;;;;;;2.30;1.90;;;;;;;10.73;59.40;99002.80;219659;1255;139959;-68
2024/04/19 09:33:37;;;;;;;6.30;2.20;;;;;;;10.48;59.67;99001.35;220382;1256;139919;-70
2024/04/19 09:38:39;;;;;;;4.40;1.90;;;;;;;10.54;60.22;98998.67;218676;1255;139192;-68
2024/04/19 09:43:49;;;;;;;3.60;2.10;;;;;;;10.53;59.76;98994.85;218055;1259;140943;-69
2024/04/19 09:48:52;;;;;;;3.10;1.60;;;;;;;10.60;60.22;98985.58;217594;1259;139509;-69
2024/04/19 09:53:58;;;;;;;2.20;2.00;;;;;;;10.72;60.32;98983.02;218066;1258;140700;-69
2024/04/19 09:59:00;;;;;;;5.90;3.60;;;;;;;11.24;61.28;98975.11;217690;1259;140492;-69
2024/04/19 10:04:08;;;;;;;4.60;4.20;;;;;;;12.20;61.48;98963.82;217621;1257;139474;-69
2024/04/19 10:09:14;;;;;;;4.30;3.80;;;;;;;12.66;60.56;98958.23;217745;1259;139625;-69
2024/04/19 10:14:16;;;;;;;6.80;4.90;;;;;;;12.38;59.72;98946.64;217772;1257;139168;-69
2024/04/19 10:19:18;;;;;;;6.90;4.20;;;;;;;12.70;60.97;98929.92;217584;1257;139187;-68
2024/04/19 10:24:20;;;;;;;5.10;4.40;;;;;;;13.00;60.36;98921.56;217723;1259;141143;-69
2024/04/19 10:29:26;;;;;;;5.80;5.20;;;;;;;13.22;60.20;98913.08;217583;1257;140632;-68
2024/04/19 10:34:29;;;;;;;5.50;5.00;;;;;;;13.19;59.51;98903.02;217478;1257;140044;-69
2024/04/19 10:39:31;;;;;;;4.60;4.20;;;;;;;13.25;58.89;98896.54;217517;1258;139443;-69
2024/04/19 10:44:32;;;;;;;4.80;3.90;;;;;;;13.30;59.19;98884.38;217691;1256;140154;-69
2024/04/19 10:49:34;;;;;;;3.60;3.20;;;;;;;13.76;59.07;98872.65;217441;1257;140908;-70
2024/04/19 10:54:36;;;;;;;3.30;3.00;;;;;;;13.94;57.91;98864.52;217857;1257;140110;-69
2024/04/19 10:59:38;;;;;;;5.50;2.50;;;;;;;13.86;57.30;98861.52;217543;1257;139452;-70
2024/04/19 11:04:40;;;;;;;3.40;2.80;;;;;;;13.76;56.88;98859.15;217778;1256;139373;-69
2024/04/19 11:09:43;;;;;;;2.90;2.40;;;;;;;13.80;56.54;98847.19;217938;1257;140573;-70
2024/04/19 11:14:45;;;;;;;2.50;2.20;;;;;;;13.95;57.01;98840.62;217686;1259;140078;-70
2024/04/19 11:19:47;;;;;;;2.20;2.10;;;;;;;14.10;56.49;98828.13;218098;1256;139734;-70
2024/04/19 11:24:53;;;;;;;2.70;2.50;;;;;;;14.00;55.71;98825.73;217585;1259;139473;-69
2024/04/19 11:29:55;;;;;;;2.60;2.00;;;;;;;13.77;55.74;98815.44;217623;1257;160478;-70
2024/04/19 11:34:58;;;;;;;3.30;2.50;;;;;;;13.77;55.34;98813.88;217647;1257;140203;-69
2024/04/19 11:40:00;;;;;;;2.60;2.40;;;;;;;13.60;55.34;98802.52;217124;1257;639010;-68
2024/04/19 11:45:05;;;;;;;4.30;2.90;;;;;;;13.85;55.47;98796.73;217746;1259;140308;-69
2024/04/19 11:50:08;;;;;;;2.30;2.10;;;;;;;13.74;55.23;98787.13;217545;1255;141266;-69
2024/04/19 11:55:10;;;;;;;2.20;2.10;;;;;;;13.43;54.53;98782.96;217477;1259;140121;-70
2024/04/19 12:00:15;;;;;;;3.10;2.20;;;;;;;12.71;53.88;98801.14;217554;1259;140009;-68
2024/04/19 12:05:17;;;;;;;1.80;1.70;;;;;;;11.88;54.93;98801.41;217410;1259;140420;-69
2024/04/19 12:10:19;;;;;;;2.20;2.00;;;;;;;11.37;56.38;98793.55;217745;1259;140684;-68
2024/04/19 12:15:21;;;;;;;3.10;2.60;;;;;;;11.44;58.13;98790.37;217684;1257;139654;-69
2024/04/19 12:20:22;;;;;;;2.50;2.10;;;;;;;11.81;58.94;98785.75;217580;1259;141508;-69
2024/04/19 12:25:24;;;;;;;2.10;2.00;;;;;;;12.35;59.39;98770.42;217701;1257;140627;-69
2024/04/19 12:30:27;;;;;;;2.40;2.20;;;;;;;12.60;59.13;98761.98;217521;1259;140046;-69
2024/04/19 12:35:29;;;;;;;2.10;1.90;;;;;;;12.51;58.75;98756.71;217576;1259;140223;-69
2024/04/19 12:40:31;;;;;;;2.50;2.30;;;;;;;12.43;58.51;98758.07;217582;1260;141698;-71
2024/04/19 12:45:33;;;;;;;3.00;2.80;;;;;;;12.38;57.83;98766.25;217618;1257;140436;-69
2024/04/19 12:50:36;;;;;;;2.20;1.90;;;;;;;12.03;57.88;98787.13;218002;1259;139414;-69
2024/04/19 12:55:38;;;;;;;3.40;3.10;;;;;;;11.37;58.22;98814.46;217640;1256;141373;-69
2024/04/19 13:00:39;;;;;;;4.50;2.80;;;;;;;10.56;59.40;98809.92;218107;1257;139241;-71
2024/04/19 13:05:41;;;;;;;3.20;2.90;;;;;;;10.23;60.84;98805.25;218372;1259;139480;-69
2024/04/19 13:10:43;;;;;;;3.10;2.90;;;;;;;10.15;62.33;98803.26;219532;1258;139569;-69
2024/04/19 13:15:44;;;;;;;2.20;2.00;;;;;;;10.18;63.16;98798.77;217798;1257;139855;-67
2024/04/19 13:20:46;;;;;;;1.30;1.30;;;;;;;10.23;63.36;98786.89;217883;1259;140722;-70
2024/04/19 13:25:47;;;;;;;5.10;2.10;;;;;;;10.27;63.86;98771.64;217266;1259;139927;-71
2024/04/19 13:30:48;;;;;;;2.20;1.90;;;;;;;10.51;63.97;98770.08;217746;1259;142132;-72
2024/04/19 13:35:50;;;;;;;2.60;2.10;;;;;;;10.70;63.88;98757.77;218147;1256;140430;-69
2024/04/19 13:40:51;;;;;;;3.50;2.30;;;;;;;10.96;63.62;98750.15;217416;1257;140857;-69
2024/04/19 13:45:55;;;;;;;2.60;2.20;;;;;;;11.13;63.12;98743.75;217426;1257;141434;-69
2024/04/19 13:50:56;;;;;;;2.30;2.10;;;;;;;10.93;62.35;98751.52;218180;1258;140303;-69
2024/04/19 13:55:58;;;;;;;2.20;2.00;;;;;;;10.63;62.05;98742.05;217474;1257;141088;-68
2024/04/19 14:01:00;;;;;;;3.50;2.00;;;;;;;10.31;61.99;98733.52;217345;1258;140617;-67
2024/04/19 14:06:01;;;;;;;7.60;2.40;;;;;;;10.09;62.36;98734.46;217345;1258;139841;-68
2024/04/19 14:11:03;;;;;;;3.30;3.10;;;;;;;10.06;62.80;98727.52;217287;1259;140078;-68
2024/04/19 14:16:08;;;;;;;2.70;2.30;;;;;;;10.05;63.18;98720.86;217983;1257;140722;-73
2024/04/19 14:21:10;;;;;;;2.70;2.00;;;;;;;10.10;63.27;98706.08;217404;1257;139189;-68
2024/04/19 14:26:11;;;;;;;1.90;1.50;;;;;;;10.11;63.26;98702.36;217233;1258;140148;-69
2024/04/19 14:31:12;;;;;;;3.60;3.10;;;;;;;10.06;62.92;98690.83;218080;1259;141308;-68
2024/04/19 14:36:14;;;;;;;3.20;2.90;;;;;;;10.00;62.81;98668.85;217527;1260;139481;-69
2024/04/19 14:41:15;;;;;;;3.10;2.90;;;;;;;10.00;63.28;98670.98;217310;1261;139648;-68
2024/04/19 14:46:17;;;;;;;3.10;2.90;;;;;;;9.99;62.94;98666.71;218526;1257;140617;-71
2024/04/19 14:51:18;;;;;;;3.00;2.80;;;;;;;10.03;63.08;98660.89;219180;1256;139906;-69
2024/04/19 14:56:21;;;;;;;2.70;2.50;;;;;;;10.25;63.29;98659.48;218524;1257;140162;-69
2024/04/19 15:01:22;;;;;;;3.70;2.60;;;;;;;10.42;63.06;98648.16;217578;1256;139981;-72
2024/04/19 15:06:29;;;;;;;4.40;3.90;;;;;;;10.43;62.89;98645.04;217240;1259;139488;-70
2024/04/19 15:11:30;;;;;;;2.90;2.70;;;;;;;10.37;62.72;98640.54;217276;1259;139606;-72
2024/04/19 15:16:32;;;;;;;3.00;2.80;;;;;;;10.38;62.78;98639.95;217423;1259;139673;-69
2024/04/19 15:21:34;;;;;;;3.50;3.20;;;;;;;10.36;62.70;98633.35;217484;1257;139527;-69
2024/04/19 15:26:35;;;;;;;4.10;3.80;;;;;;;10.47;62.90;98630.23;218992;1259;141591;-70
2024/04/19 15:31:38;;;;;;;1.80;1.60;;;;;;;10.64;62.62;98625.72;217867;1257;139085;-70
2024/04/19 15:36:40;;;;;;;5.10;3.30;;;;;;;10.65;62.11;98616.19;217674;1258;139231;-71
2024/04/19 15:41:42;;;;;;;4.30;3.00;;;;;;;10.58;61.98;98608.00;217290;1260;140278;-70
2024/04/19 15:46:44;;;;;;;4.20;3.70;;;;;;;10.47;62.19;98606.46;217928;1260;141618;-71
2024/04/19 15:51:45;;;;;;;2.50;2.30;;;;;;;10.44;62.17;98606.88;217250;1258;139075;-69
2024/04/19 15:56:46;;;;;;;3.90;3.30;;;;;;;10.31;62.18;98595.60;217382;1257;140485;-69
2024/04/19 16:01:48;;;;;;;3.80;3.50;;;;;;;10.11;62.03;98589.46;217310;1260;140366;-68
2024/04/19 16:06:50;;;;;;;5.60;4.90;;;;;;;9.94;62.44;98583.52;217334;1259;140868;-69
2024/04/19 16:11:52;;;;;;;4.10;3.80;;;;;;;9.76;62.44;98573.89;217448;1261;141427;-70
2024/04/19 16:16:54;;;;;;;7.50;4.70;;;;;;;9.60;63.06;98575.92;217676;1259;139336;-69
2024/04/19 16:21:56;;;;;;;4.30;3.90;;;;;;;9.51;63.30;98570.64;217430;1259;139290;-69
2024/04/19 16:26:57;;;;;;;6.70;4.80;;;;;;;9.43;63.95;98565.13;217496;1261;139114;-70
2024/04/19 16:31:58;;;;;;;6.10;4.40;;;;;;;9.30;64.19;98560.61;217545;1258;139147;-69
2024/04/19 16:37:00;;;;;;;9.10;5.40;;;;;;;9.22;64.97;98553.62;217272;1257;140047;-68
2024/04/19 16:42:01;;;;;;;8.80;6.70;;;;;;;9.17;65.54;98551.30;217208;1257;139899;-68
2024/04/19 16:47:03;;;;;;;8.20;5.90;;;;;;;9.04;65.76;98552.54;217421;1261;140743;-69
2024/04/19 16:52:06;;;;;;;7.70;5.80;;;;;;;8.93;66.17;98547.48;217892;1259;140070;-69
2024/04/19 16:57:08;;;;;;;7.60;5.60;;;;;;;8.75;66.40;98544.95;218882;1257;140928;-69
2024/04/19 17:02:10;;;;;;;7.80;6.00;;;;;;;8.57;66.61;98543.90;217392;1259;140554;-68
2024/04/19 17:07:11;;;;;;;7.30;6.30;;;;;;;8.35;66.99;98540.65;217073;1257;139907;-69
2024/04/19 17:12:13;;;;;;;7.40;5.70;;;;;;;8.20;67.66;98541.86;217299;1260;139910;-70
2024/04/19 17:17:15;;;;;;;14.30;7.50;;;;;;;8.13;68.13;98547.34;217166;1258;139999;-69
2024/04/19 17:22:16;;;;;;;10.90;7.20;;;;;;;8.03;68.78;98542.70;217327;1261;140221;-68
2024/04/19 17:27:17;;;;;;;10.20;6.80;;;;;;;7.89;69.56;98548.11;217627;1258;140587;-69
2024/04/19 17:32:18;;;;;;;7.60;6.60;;;;;;;7.86;70.45;98576.14;217334;1260;139850;-68
2024/04/19 17:37:20;;;;;;;6.10;5.00;;;;;;;7.66;70.72;98579.05;217727;1258;140196;-68
2024/04/19 17:42:21;;;;;;;7.50;4.90;;;;;;;7.36;71.24;98558.25;217508;1261;140116;-67
2024/04/19 17:47:23;;;;;;;4.10;3.80;;;;;;;7.20;71.81;98545.76;217559;1260;139692;-68
2024/04/19 17:52:24;;;;;;;4.20;3.90;;;;;;;7.12;72.25;98543.34;217502;1262;140288;-66
2024/04/19 17:57:27;;;;;;;4.00;3.40;;;;;;;6.98;72.44;98551.44;217421;1261;141719;-69
2024/04/19 18:02:30;;;;;;;3.50;3.00;;;;;;;6.84;73.18;98555.39;217618;1257;140325;-69
2024/04/19 18:07:31;;;;;;;6.60;4.70;;;;;;;6.74;73.54;98550.88;217645;1257;140577;-68
2024/04/19 18:12:33;;;;;;;5.30;4.80;;;;;;;6.73;73.94;98550.44;218563;1261;141316;-68
2024/04/19 18:17:34;;;;;;;5.20;4.10;;;;;;;6.75;74.41;98546.45;217329;1262;140078;-69
2024/04/19 18:22:37;;;;;;;5.10;4.40;;;;;;;6.77;75.01;98550.08;217386;1257;139458;-69
2024/04/19 18:27:39;;;;;;;5.50;5.00;;;;;;;6.76;75.39;98552.86;217178;1262;140303;-69
2024/04/19 18:32:40;;;;;;;5.80;5.20;;;;;;;6.74;75.50;98556.22;218303;1263;140683;-68
2024/04/19 18:37:42;;;;;;;6.90;4.30;;;;;;;6.72;76.18;98548.67;217259;1260;140706;-69
2024/04/19 18:42:43;;;;;;;4.40;4.00;;;;;;;6.72;76.03;98543.39;217289;1257;231066;-68
2024/04/19 18:47:46;;;;;;;15.20;11.80;;;;;;;6.61;75.85;98542.23;217236;1263;139601;-68
2024/04/19 18:52:47;;;;;;;10.90;8.20;;;;;;;6.56;76.32;98541.13;218209;1262;140874;-68
2024/04/19 18:57:49;;;;;;;11.10;7.30;;;;;;;6.48;76.94;98541.36;218231;1257;141086;-68
2024/04/19 19:02:51;;;;;;;12.70;8.80;;;;;;;6.38;76.98;98536.06;217926;1257;140431;-68
2024/04/19 19:07:54;;;;;;;24.60;17.80;;;;;;;6.32;77.45;98525.73;217092;1260;140535;-69
2024/04/19 19:12:56;;;;;;;17.10;12.70;;;;;;;6.30;77.94;98522.34;217708;1260;141538;-69
2024/04/19 19:17:59;;;;;;;15.10;10.10;;;;;;;6.27;78.17;98520.77;217401;1262;141891;-67
2024/04/19 19:23:02;;;;;;;14.60;9.70;;;;;;;6.28;78.85;98520.18;217269;1258;140337;-68
2024/04/19 19:28:04;;;;;;;13.10;9.30;;;;;;;6.30;79.23;98518.91;218055;1260;140053;-70
2024/04/19 19:33:06;;;;;;;12.30;8.80;;;;;;;6.35;79.55;98523.83;217352;1260;140719;-68
2024/04/19 19:38:08;;;;;;;17.10;11.10;;;;;;;6.40;79.39;98540.02;217540;1257;140682;-72
2024/04/19 19:43:09;;;;;;;8.60;7.40;;;;;;;6.33;79.47;98547.61;217821;1258;140206;-68
2024/04/19 19:48:10;;;;;;;7.80;5.50;;;;;;;6.26;79.15;98537.41;217419;1258;139639;-70
2024/04/19 19:53:12;;;;;;;6.10;5.00;;;;;;;6.16;79.19;98535.37;217372;1264;139717;-69
2024/04/19 19:58:13;;;;;;;5.70;5.10;;;;;;;6.10;79.52;98528.63;217878;1260;140618;-68
2024/04/19 20:08:35;;;;;;;7.90;5.60;;;;;;;5.94;79.88;98527.31;217439;1256;140584;-68
2024/04/19 20:13:36;;;;;;;5.60;5.10;;;;;;;5.91;80.42;98523.70;217604;1263;140139;-67
2024/04/19 20:18:38;;;;;;;7.10;4.60;;;;;;;5.88;80.54;98527.20;217493;1260;139806;-68
2024/04/19 20:23:40;;;;;;;6.30;5.40;;;;;;;5.86;80.56;98527.04;217398;1257;140346;-67
2024/04/19 20:28:41;;;;;;;8.10;5.90;;;;;;;5.83;81.05;98526.89;217317;1257;142045;-70
2024/04/19 20:33:43;;;;;;;6.50;5.70;;;;;;;5.79;81.41;98521.74;218192;1256;139790;-69
2024/04/19 20:38:44;;;;;;;7.90;6.60;;;;;;;5.75;81.54;98516.85;218182;1257;139814;-71
2024/04/19 20:43:46;;;;;;;9.90;6.60;;;;;;;5.75;81.70;98515.95;218786;1257;139749;-69
2024/04/19 20:48:47;;;;;;;10.30;7.80;;;;;;;5.67;81.81;98516.63;217497;1260;141441;-70
2024/04/19 20:53:49;;;;;;;7.60;4.20;;;;;;;5.62;81.99;98516.10;217294;1257;141491;-67
2024/04/19 20:58:50;;;;;;;4.90;4.40;;;;;;;5.58;81.92;98515.05;218120;1256;140471;-66
2024/04/19 21:03:51;;;;;;;4.70;4.10;;;;;;;5.54;81.97;98512.84;217914;1257;141505;-68
2024/04/19 21:08:53;;;;;;;3.10;2.70;;;;;;;5.52;82.27;98508.41;218571;1258;140242;-67
2024/04/19 21:13:55;;;;;;;3.70;3.10;;;;;;;5.51;82.23;98503.34;217318;1260;140533;-67
2024/04/19 21:18:56;;;;;;;3.10;2.40;;;;;;;5.48;82.52;98502.52;217069;1260;139612;-66
2024/04/19 21:23:58;;;;;;;3.50;3.20;;;;;;;5.46;82.59;98499.23;217112;1257;140171;-68
2024/04/19 21:28:59;;;;;;;4.80;4.30;;;;;;;5.45;82.92;98495.55;217402;1258;141246;-67
2024/04/19 21:34:00;;;;;;;6.50;4.00;;;;;;;5.45;83.18;98490.90;217252;1257;139626;-70
2024/04/19 21:39:03;;;;;;;4.40;3.80;;;;;;;5.45;83.28;98490.79;217169;1260;139950;-67
2024/04/19 21:44:04;;;;;;;4.80;4.20;;;;;;;5.43;83.57;98487.84;218183;1257;141303;-68
2024/04/19 21:49:06;;;;;;;3.90;3.40;;;;;;;5.36;83.60;98488.53;217260;1256;140608;-67
2024/04/19 21:54:09;;;;;;;3.90;3.60;;;;;;;5.31;83.93;98489.52;217288;1257;140437;-68
2024/04/19 21:59:11;;;;;;;3.50;3.20;;;;;;;5.30;84.06;98498.96;217419;1257;140447;-68
2024/04/19 22:04:12;;;;;;;4.80;3.60;;;;;;;5.30;84.60;98501.24;217119;1258;140680;-68
2024/04/19 22:09:13;;;;;;;3.10;2.90;;;;;;;5.30;84.37;98499.45;217576;1257;140692;-67
2024/04/19 22:14:17;;;;;;;3.00;2.80;;;;;;;5.32;84.38;98502.11;217113;1257;139684;-68
2024/04/19 22:19:18;;;;;;;2.90;2.60;;;;;;;5.29;84.29;98505.61;217119;1257;139975;-66
2024/04/19 22:24:20;;;;;;;3.80;2.60;;;;;;;5.26;84.17;98504.20;217378;1257;140042;-67
2024/04/19 22:29:21;;;;;;;2.60;2.40;;;;;;;5.25;84.12;98506.23;220075;1255;140722;-70
2024/04/19 22:34:23;;;;;;;2.80;2.30;;;;;;;5.26;84.59;98506.68;219043;1258;140274;-67
2024/04/19 22:39:24;;;;;;;3.50;2.50;;;;;;;5.25;84.36;98506.66;219905;1258;140546;-68
2024/04/19 22:44:26;;;;;;;3.30;3.00;;;;;;;5.24;84.38;98505.61;218910;1257;140388;-67
2024/04/19 22:49:28;;;;;;;1.90;1.80;;;;;;;5.21;84.08;98507.42;217002;1257;140340;-69
2024/04/19 22:54:29;;;;;;;1.70;1.60;;;;;;;5.16;84.07;98505.53;218664;1260;143488;-67
2024/04/19 22:59:30;;;;;;;1.50;1.40;;;;;;;5.10;83.76;98505.43;217613;1257;141082;-68
2024/04/19 23:04:32;;;;;;;2.50;2.20;;;;;;;5.01;83.86;98507.88;217294;1257;140912;-68
2024/04/19 23:09:33;;;;;;;1.80;1.70;;;;;;;4.98;84.16;98507.31;217582;1257;140116;-68
2024/04/19 23:14:35;;;;;;;1.50;1.40;;;;;;;4.90;84.22;98503.06;217197;1260;140132;-66
2024/04/19 23:19:37;;;;;;;1.70;1.60;;;;;;;4.87;84.41;98503.00;217164;1257;140085;-67
2024/04/19 23:24:39;;;;;;;3.20;2.90;;;;;;;4.83;84.41;98503.60;217415;1258;140712;-67